createdAt,value
2019-04-05T00:00:47.866Z,5.40
2019-04-05T00:03:16.550Z,5.31
2019-04-05T00:05:45.373Z,5.23
2019-04-05T00:08:14.390Z,5.41
2019-04-05T00:10:43.226Z,5.44
2019-04-05T00:13:12.168Z,5.34
2019-04-05T00:15:40.951Z,5.36
2019-04-05T00:18:09.606Z,5.39
2019-04-05T00:20:38.648Z,5.51
2019-04-05T00:23:07.593Z,5.56
2019-04-05T00:25:36.369Z,5.41
2019-04-05T00:28:05.169Z,5.46
2019-04-05T00:30:36.295Z,5.43
2019-04-05T00:33:05.141Z,5.48
2019-04-05T00:35:33.840Z,5.54
2019-04-05T00:38:02.533Z,5.43
2019-04-05T00:40:31.300Z,5.42
2019-04-05T00:43:00.054Z,5.51
2019-04-05T00:45:28.963Z,5.48
2019-04-05T00:47:57.927Z,5.56
2019-04-05T00:50:26.710Z,5.58
2019-04-05T00:52:55.698Z,5.45
2019-04-05T00:55:24.458Z,5.50
2019-04-05T00:57:53.304Z,5.41
2019-04-05T01:00:22.517Z,5.36
2019-04-05T01:02:51.542Z,5.38
2019-04-05T01:05:20.249Z,5.43
2019-04-05T01:07:49.174Z,5.44
2019-04-05T01:10:18.777Z,5.47
2019-04-05T01:12:48.047Z,5.38
2019-04-05T01:15:17.187Z,5.31
2019-04-05T01:17:46.181Z,5.34
2019-04-05T01:20:15.086Z,5.30
2019-04-05T01:22:46.418Z,5.28
2019-04-05T01:25:15.814Z,5.29
2019-04-05T01:27:44.911Z,5.23
2019-04-05T01:30:14.995Z,5.17
2019-04-05T01:32:43.994Z,5.20
2019-04-05T01:35:13.186Z,5.17
2019-04-05T01:37:42.702Z,5.17
2019-04-05T01:40:11.911Z,5.21
2019-04-05T01:42:41.448Z,5.22
2019-04-05T01:45:10.484Z,5.30
2019-04-05T01:47:39.405Z,5.37
2019-04-05T01:50:08.947Z,5.30
2019-04-05T01:52:38.175Z,5.29
2019-04-05T01:55:08.045Z,5.30
2019-04-05T01:57:36.975Z,5.29
2019-04-05T02:00:07.236Z,5.24
2019-04-05T02:02:35.972Z,5.31
2019-04-05T02:05:06.459Z,5.22
2019-04-05T02:07:35.455Z,5.23
2019-04-05T02:10:05.050Z,5.27
2019-04-05T02:12:34.488Z,5.25
2019-04-05T02:15:03.592Z,5.26
2019-04-05T02:17:32.350Z,5.39
2019-04-05T02:20:01.113Z,5.32
2019-04-05T02:22:29.803Z,5.40
2019-04-05T02:24:58.572Z,5.32
2019-04-05T02:27:27.901Z,5.48
2019-04-05T02:29:56.917Z,5.40
2019-04-05T02:32:25.685Z,5.46
2019-04-05T02:34:54.634Z,5.50
2019-04-05T02:37:23.974Z,5.47
2019-04-05T02:39:52.972Z,5.44
2019-04-05T02:42:22.158Z,5.26
2019-04-05T02:44:52.439Z,5.44
2019-04-05T02:47:22.111Z,5.40
2019-04-05T02:49:52.462Z,5.47
2019-04-05T02:52:22.190Z,5.43
2019-04-05T02:54:52.897Z,5.45
2019-04-05T02:57:22.805Z,5.45
2019-04-05T02:59:52.797Z,5.50
2019-04-05T03:02:21.997Z,5.38
2019-04-05T03:04:50.689Z,5.34
2019-04-05T03:07:19.781Z,5.38
2019-04-05T03:09:49.413Z,5.42
2019-04-05T03:12:19.216Z,5.30
2019-04-05T03:14:51.408Z,5.36
2019-04-05T03:17:20.472Z,5.41
2019-04-05T03:20:09.823Z,5.30
2019-04-05T03:22:40.853Z,5.42
2019-04-05T03:25:09.689Z,5.38
2019-04-05T03:27:39.635Z,5.31
2019-04-05T03:30:08.782Z,5.50
2019-04-05T03:32:38.447Z,5.55
2019-04-05T03:35:07.372Z,5.55
2019-04-05T03:37:36.239Z,5.54
2019-04-05T03:40:05.937Z,5.65
2019-04-05T03:42:35.646Z,5.56
2019-04-05T03:45:04.659Z,5.64
2019-04-05T03:47:33.477Z,5.57
2019-04-05T03:50:02.337Z,5.37
2019-04-05T03:52:31.828Z,5.23
2019-04-05T03:55:00.581Z,5.36
2019-04-05T03:57:29.955Z,5.48
2019-04-05T04:00:01.523Z,5.34
2019-04-05T04:02:30.712Z,5.39
2019-04-05T04:04:59.778Z,5.54
2019-04-05T04:07:28.713Z,5.46
2019-04-05T04:09:57.540Z,5.55
2019-04-05T04:12:26.388Z,5.50
2019-04-05T04:14:57.404Z,5.64
2019-04-05T04:17:26.501Z,5.57
2019-04-05T04:19:55.491Z,5.41
2019-04-05T04:22:31.236Z,5.42
2019-04-05T04:25:00.750Z,5.31
2019-04-05T04:27:30.103Z,5.31
2019-04-05T04:30:00.518Z,5.39
2019-04-05T04:32:29.960Z,5.37
2019-04-05T04:34:59.191Z,5.58
2019-04-05T04:37:28.499Z,5.55
2019-04-05T04:39:57.840Z,5.47
2019-04-05T04:42:27.133Z,5.44
2019-04-05T04:44:55.973Z,5.54
2019-04-05T04:47:27.405Z,5.54
2019-04-05T04:49:57.899Z,5.51
2019-04-05T04:52:31.038Z,5.64
2019-04-05T04:54:59.479Z,5.65
2019-04-05T04:57:28.439Z,5.59
2019-04-05T04:59:57.633Z,5.53
2019-04-05T05:02:26.882Z,5.58
2019-04-05T05:04:55.733Z,5.58
2019-04-05T05:07:24.499Z,5.62
2019-04-05T05:09:53.336Z,5.63
2019-04-05T05:12:22.438Z,5.60
2019-04-05T05:14:51.209Z,5.55
2019-04-05T05:17:20.075Z,5.62
2019-04-05T05:19:49.107Z,5.68
2019-04-05T05:22:17.980Z,5.67
2019-04-05T05:24:47.089Z,5.61
2019-04-05T05:27:16.054Z,5.64
2019-04-05T05:29:45.329Z,5.67
2019-04-05T05:32:14.530Z,5.63
2019-04-05T05:34:43.376Z,5.57
2019-04-05T05:37:12.413Z,5.56
2019-04-05T05:39:41.085Z,5.63
2019-04-05T05:42:09.793Z,5.57
2019-04-05T05:44:38.725Z,5.53
2019-04-05T05:47:07.725Z,5.52
2019-04-05T05:49:36.678Z,5.56
2019-04-05T05:52:05.749Z,5.49
2019-04-05T05:54:34.530Z,5.47
2019-04-05T05:57:03.677Z,5.55
2019-04-05T05:59:32.394Z,5.55
2019-04-05T06:02:03.680Z,5.48
2019-04-05T06:04:32.405Z,5.63
2019-04-05T06:07:01.587Z,5.61
2019-04-05T06:09:30.799Z,5.62
2019-04-05T06:11:59.671Z,5.71
2019-04-05T06:14:28.639Z,5.70
2019-04-05T06:16:57.337Z,5.73
2019-04-05T06:19:26.073Z,5.69
2019-04-05T06:21:54.856Z,5.76
2019-04-05T06:24:23.572Z,5.74
2019-04-05T06:26:53.041Z,5.75
2019-04-05T06:29:21.737Z,5.76
2019-04-05T06:31:50.538Z,4.86
2019-04-05T06:34:19.587Z,5.72
2019-04-05T06:36:51.086Z,5.73
2019-04-05T06:39:20.649Z,5.74
2019-04-05T06:41:49.522Z,5.78
2019-04-05T06:44:18.222Z,5.65
2019-04-05T06:46:46.914Z,5.77
2019-04-05T06:49:15.641Z,5.84
2019-04-05T06:51:44.596Z,5.94
2019-04-05T06:54:13.773Z,5.90
2019-04-05T06:56:42.703Z,5.74
2019-04-05T06:59:11.767Z,5.63
2019-04-05T07:01:40.462Z,5.80
2019-04-05T07:04:09.401Z,5.83
2019-04-05T07:06:38.071Z,5.79
2019-04-05T07:09:07.284Z,5.73
2019-04-05T07:11:36.056Z,5.68
2019-04-05T07:14:04.818Z,5.64
2019-04-05T07:16:33.669Z,5.80
2019-04-05T07:19:02.706Z,5.80
2019-04-05T07:21:31.394Z,5.86
2019-04-05T07:24:00.342Z,5.86
2019-04-05T07:26:29.554Z,5.85
2019-04-05T07:28:58.378Z,5.79
2019-04-05T07:31:27.051Z,5.99
2019-04-05T07:33:56.313Z,5.95
2019-04-05T07:36:25.517Z,5.97
2019-04-05T07:38:54.220Z,5.90
2019-04-05T07:41:23.078Z,5.88
2019-04-05T07:43:51.820Z,5.88
2019-04-05T07:46:20.586Z,5.93
2019-04-05T07:48:49.294Z,5.87
2019-04-05T07:51:17.982Z,5.88
2019-04-05T07:53:46.691Z,5.83
2019-04-05T07:56:15.431Z,5.88
2019-04-05T07:58:44.727Z,5.91
2019-04-05T08:01:14.354Z,5.89
2019-04-05T08:03:43.210Z,5.84
2019-04-05T08:06:12.556Z,5.86
2019-04-05T08:08:57.647Z,5.97
2019-04-05T08:11:27.482Z,5.97
2019-04-05T08:13:58.224Z,5.89
2019-04-05T08:16:27.055Z,5.94
2019-04-05T08:18:58.057Z,5.95
2019-04-05T08:21:26.670Z,5.91
2019-04-05T08:23:55.410Z,6.00
2019-04-05T08:26:24.321Z,5.95
2019-04-05T08:28:53.274Z,5.93
2019-04-05T08:31:22.465Z,5.93
2019-04-05T08:33:51.940Z,5.87
2019-04-05T08:36:20.724Z,5.82
2019-04-05T08:38:49.739Z,5.87
2019-04-05T08:41:18.417Z,5.84
2019-04-05T08:43:47.690Z,5.85
2019-04-05T08:46:16.615Z,5.97
2019-04-05T08:48:45.363Z,6.05
2019-04-05T08:51:14.286Z,6.02
2019-04-05T08:53:42.985Z,6.03
2019-04-05T08:56:11.934Z,6.08
2019-04-05T08:58:40.656Z,6.15
2019-04-05T09:01:09.391Z,6.12
2019-04-05T09:03:38.373Z,6.14
2019-04-05T09:06:07.322Z,6.24
2019-04-05T09:08:36.272Z,6.15
2019-04-05T09:11:05.044Z,6.27
2019-04-05T09:13:33.714Z,6.33
2019-04-05T09:16:02.654Z,6.34
2019-04-05T09:18:31.409Z,6.38
2019-04-05T09:21:00.110Z,6.20
2019-04-05T09:23:28.815Z,6.18
2019-04-05T09:25:57.766Z,6.19
2019-04-05T09:28:26.475Z,6.18
2019-04-05T09:30:56.937Z,6.02
2019-04-05T09:33:25.631Z,6.00
2019-04-05T09:35:54.334Z,5.91
2019-04-05T09:38:23.027Z,5.91
2019-04-05T09:40:51.856Z,6.05
2019-04-05T09:43:20.748Z,6.18
2019-04-05T09:45:49.528Z,6.15
2019-04-05T09:48:18.457Z,6.15
2019-04-05T09:50:47.418Z,6.09
2019-04-05T09:53:16.243Z,6.09
2019-04-05T09:55:45.022Z,6.15
2019-04-05T09:58:13.664Z,6.12
2019-04-05T10:00:42.371Z,6.13
2019-04-05T10:03:11.092Z,6.13
2019-04-05T10:05:40.074Z,6.15
2019-04-05T10:08:08.966Z,6.17
2019-04-05T10:10:37.988Z,6.22
2019-04-05T10:13:09.640Z,6.34
2019-04-05T10:15:37.171Z,6.28
2019-04-05T10:18:06.006Z,6.26
2019-04-05T10:20:34.989Z,6.23
2019-04-05T10:23:03.825Z,6.21
2019-04-05T10:25:32.764Z,6.17
2019-04-05T10:28:01.944Z,6.30
2019-04-05T10:30:30.720Z,6.34
2019-04-05T10:32:59.643Z,6.28
2019-04-05T10:35:28.357Z,6.41
2019-04-05T10:37:58.482Z,6.37
2019-04-05T10:40:27.369Z,6.24
2019-04-05T10:42:56.095Z,6.17
2019-04-05T10:45:25.297Z,6.30
2019-04-05T10:47:53.976Z,6.28
2019-04-05T10:50:23.073Z,6.37
2019-04-05T10:52:52.021Z,6.36
2019-04-05T10:55:20.978Z,6.31
2019-04-05T10:57:49.920Z,6.51
2019-04-05T11:00:19.462Z,6.25
2019-04-05T11:02:48.184Z,6.17
2019-04-05T11:05:17.037Z,6.29
2019-04-05T11:07:45.730Z,6.49
2019-04-05T11:10:15.105Z,6.41
2019-04-05T11:12:43.838Z,6.33
2019-04-05T11:15:15.112Z,6.34
2019-04-05T11:17:43.405Z,6.48
2019-04-05T11:20:21.099Z,6.53
2019-04-05T11:22:46.537Z,6.69
2019-04-05T11:25:14.585Z,6.58
2019-04-05T11:27:43.552Z,6.60
2019-04-05T11:30:14.363Z,6.52
2019-04-05T11:32:43.140Z,6.36
2019-04-05T11:35:14.917Z,6.48
2019-04-05T11:37:42.806Z,6.45
2019-04-05T11:40:13.067Z,6.58
2019-04-05T11:42:43.306Z,6.51
2019-04-05T11:45:12.145Z,6.47
2019-04-05T11:47:42.709Z,6.40
2019-04-05T11:50:12.801Z,6.42
2019-04-05T11:52:41.508Z,6.58
2019-04-05T11:55:10.607Z,6.65
2019-04-05T11:57:41.474Z,6.66
2019-04-05T12:00:16.182Z,6.58
2019-04-05T12:02:48.623Z,6.55
2019-04-05T12:05:20.348Z,6.72
2019-04-05T12:07:49.304Z,6.82
2019-04-05T12:10:19.528Z,6.90
2019-04-05T12:12:48.626Z,6.80
2019-04-05T12:15:17.471Z,6.79
2019-04-05T12:17:46.412Z,6.75
2019-04-05T12:20:15.822Z,6.81
2019-04-05T12:22:44.581Z,6.88
2019-04-05T12:25:13.600Z,7.05
2019-04-05T12:27:42.293Z,7.06
2019-04-05T12:30:13.563Z,7.05
2019-04-05T12:32:42.511Z,7.02
2019-04-05T12:35:11.385Z,6.91
2019-04-05T12:37:50.230Z,7.07
2019-04-05T12:40:11.322Z,7.08
2019-04-05T12:42:43.516Z,6.96
2019-04-05T12:45:15.267Z,6.94
2019-04-05T12:47:45.547Z,6.90
2019-04-05T12:50:15.394Z,6.98
2019-04-05T12:52:44.724Z,7.02
2019-04-05T12:55:13.874Z,6.94
2019-04-05T12:57:42.579Z,6.96
2019-04-05T13:00:14.705Z,6.92
2019-04-05T13:02:43.548Z,6.80
2019-04-05T13:05:14.980Z,6.80
2019-04-05T13:07:43.940Z,6.99
2019-04-05T13:10:13.769Z,6.87
2019-04-05T13:12:42.718Z,6.92
2019-04-05T13:15:16.869Z,6.91
2019-04-05T13:17:42.194Z,7.01
2019-04-05T13:20:11.642Z,6.98
2019-04-05T13:22:40.359Z,6.83
2019-04-05T13:25:11.091Z,6.80
2019-04-05T13:27:41.509Z,6.93
2019-04-05T13:30:10.268Z,6.88
2019-04-05T13:32:38.983Z,6.87
2019-04-05T13:35:08.321Z,6.79
2019-04-05T13:37:37.103Z,6.78
2019-04-05T13:40:07.357Z,6.92
2019-04-05T13:42:36.357Z,6.88
2019-04-05T13:45:05.649Z,6.98
2019-04-05T13:47:37.916Z,7.03
2019-04-05T13:50:06.248Z,6.91
2019-04-05T13:52:35.205Z,6.88
2019-04-05T13:55:03.992Z,7.08
2019-04-05T13:57:32.931Z,7.09
2019-04-05T14:00:01.622Z,6.99
2019-04-05T14:02:30.380Z,7.04
2019-04-05T14:04:59.355Z,7.05
2019-04-05T14:07:28.054Z,7.07
2019-04-05T14:09:56.984Z,7.07
2019-04-05T14:12:25.942Z,7.26
2019-04-05T14:14:54.908Z,7.32
2019-04-05T14:17:23.858Z,7.21
2019-04-05T14:19:52.568Z,7.21
2019-04-05T14:22:22.489Z,7.09
2019-04-05T14:24:52.550Z,7.11
2019-04-05T14:27:22.415Z,7.19
2019-04-05T14:29:51.614Z,7.25
2019-04-05T14:32:21.897Z,7.33
2019-04-05T14:34:54.766Z,7.37
2019-04-05T14:37:24.949Z,7.39
2019-04-05T14:39:53.137Z,7.36
2019-04-05T14:42:22.322Z,7.30
2019-04-05T14:44:51.021Z,7.22
2019-04-05T14:47:20.057Z,7.23
2019-04-05T14:49:48.880Z,7.32
2019-04-05T14:52:17.795Z,7.46
2019-04-05T14:54:46.580Z,7.49
2019-04-05T14:57:15.265Z,7.59
2019-04-05T14:59:44.200Z,7.48
2019-04-05T15:02:12.929Z,7.43
2019-04-05T15:04:41.854Z,7.44
2019-04-05T15:07:13.785Z,7.50
2019-04-05T15:09:42.487Z,7.40
2019-04-05T15:12:11.725Z,7.41
2019-04-05T15:14:41.120Z,7.51
2019-04-05T15:17:10.090Z,7.42
2019-04-05T15:19:39.212Z,7.35
2019-04-05T15:22:10.740Z,7.34
2019-04-05T15:24:38.487Z,7.46
2019-04-05T15:27:07.239Z,7.40
2019-04-05T15:29:35.931Z,7.26
2019-04-05T15:32:04.850Z,7.25
2019-04-05T15:34:33.872Z,7.34
2019-04-05T15:37:02.744Z,7.24
2019-04-05T15:39:32.299Z,7.22
2019-04-05T15:42:01.381Z,7.21
2019-04-05T15:44:30.094Z,7.28
2019-04-05T15:46:58.773Z,7.25
2019-04-05T15:49:27.474Z,7.31
2019-04-05T15:51:58.895Z,7.44
2019-04-05T15:54:28.932Z,7.52
2019-04-05T15:56:58.126Z,7.38
2019-04-05T15:59:27.172Z,7.29
2019-04-05T16:01:56.295Z,7.23
2019-04-05T16:04:25.131Z,7.24
2019-04-05T16:06:54.630Z,7.31
2019-04-05T16:09:24.069Z,7.46
2019-04-05T16:11:52.878Z,7.42
2019-04-05T16:14:22.147Z,7.37
2019-04-05T16:16:51.081Z,7.28
2019-04-05T16:19:19.776Z,7.17
2019-04-05T16:21:48.731Z,7.16
2019-04-05T16:24:17.431Z,7.31
2019-04-05T16:26:46.360Z,7.38
2019-04-05T16:29:15.189Z,7.30
2019-04-05T16:31:43.907Z,7.36
2019-04-05T16:34:13.237Z,7.37
2019-04-05T16:36:42.194Z,7.35
2019-04-05T16:39:20.929Z,7.36
2019-04-05T16:41:50.303Z,7.40
2019-04-05T16:44:19.000Z,7.29
2019-04-05T16:46:47.721Z,7.21
2019-04-05T16:49:16.628Z,7.24
2019-04-05T16:51:46.823Z,7.11
2019-04-05T16:54:16.334Z,7.05
2019-04-05T16:56:45.728Z,7.06
2019-04-05T16:59:15.232Z,7.02
2019-04-05T17:01:44.941Z,7.09
2019-04-05T17:04:17.244Z,7.08
2019-04-05T17:06:48.036Z,7.06
2019-04-05T17:09:17.008Z,7.12
2019-04-05T17:11:46.619Z,7.13
2019-04-05T17:14:16.252Z,7.22
2019-04-05T17:16:46.437Z,7.18
2019-04-05T17:19:16.685Z,7.11
2019-04-05T17:21:47.140Z,7.11
2019-04-05T17:24:18.068Z,7.06
2019-04-05T17:26:51.093Z,7.05
2019-04-05T17:29:21.812Z,7.19
2019-04-05T17:31:52.172Z,7.13
2019-04-05T17:34:21.776Z,7.15
2019-04-05T17:36:50.817Z,7.12
2019-04-05T17:39:19.761Z,7.29
2019-04-05T17:41:48.458Z,7.16
2019-04-05T17:44:17.235Z,7.10
2019-04-05T17:46:45.944Z,7.23
2019-04-05T17:49:14.880Z,7.25
2019-04-05T17:51:43.563Z,7.23
2019-04-05T17:54:13.031Z,7.24
2019-04-05T17:56:42.124Z,7.13
2019-04-05T17:59:10.876Z,7.06
2019-04-05T18:01:39.587Z,6.97
2019-04-05T18:04:08.894Z,7.03
2019-04-05T18:06:37.980Z,7.21
2019-04-05T18:09:10.140Z,7.13
2019-04-05T18:11:39.136Z,7.06
2019-04-05T18:14:08.289Z,7.08
2019-04-05T18:16:38.338Z,7.00
2019-04-05T18:19:07.477Z,7.07
2019-04-05T18:21:37.263Z,7.04
2019-04-05T18:24:07.146Z,7.14
2019-04-05T18:26:36.102Z,7.10
2019-04-05T18:29:04.860Z,7.06
2019-04-05T18:31:33.796Z,6.97
2019-04-05T18:34:02.465Z,7.05
2019-04-05T18:36:31.163Z,7.00
2019-04-05T18:39:00.099Z,6.94
2019-04-05T18:41:31.154Z,7.12
2019-04-05T18:43:59.837Z,7.09
2019-04-05T18:46:29.046Z,7.21
2019-04-05T18:48:57.726Z,7.21
2019-04-05T18:51:26.993Z,7.24
2019-04-05T18:53:55.678Z,7.18
2019-04-05T18:56:24.620Z,7.09
2019-04-05T18:58:53.328Z,7.14
2019-04-05T19:01:22.043Z,7.21
2019-04-05T19:03:50.789Z,7.13
2019-04-05T19:06:21.913Z,7.07
2019-04-05T19:08:50.586Z,7.19
2019-04-05T19:11:19.274Z,7.38
2019-04-05T19:14:00.615Z,7.48
2019-04-05T19:16:20.244Z,7.46
2019-04-05T19:18:48.917Z,7.38
2019-04-05T19:21:20.535Z,7.41
2019-04-05T19:23:51.393Z,7.42
2019-04-05T19:26:20.466Z,7.43
2019-04-05T19:28:49.456Z,7.41
2019-04-05T19:48:53.247Z,7.30
2019-04-05T19:51:22.581Z,7.28
2019-04-05T19:54:00.807Z,7.32
2019-04-05T19:56:21.984Z,7.27
2019-04-05T19:58:50.914Z,7.40
2019-04-05T20:01:19.650Z,7.45
2019-04-05T20:03:48.470Z,7.31
2019-04-05T20:06:17.175Z,7.25
2019-04-05T20:08:45.863Z,7.17
2019-04-05T20:11:15.053Z,7.19
2019-04-05T20:13:44.204Z,7.17
2019-04-05T20:16:12.981Z,7.24
2019-04-05T20:18:42.472Z,7.17
2019-04-05T20:21:11.429Z,7.23
2019-04-05T20:23:47.494Z,7.13
2019-04-05T20:26:11.045Z,7.15
2019-04-05T20:28:39.985Z,7.26
2019-04-05T20:31:08.672Z,7.18
2019-04-05T20:33:37.376Z,7.20
2019-04-05T20:36:06.145Z,7.13
2019-04-05T20:38:35.090Z,7.21
2019-04-05T20:41:03.791Z,7.25
2019-04-05T20:43:32.515Z,7.32
2019-04-05T20:46:01.449Z,7.20
2019-04-05T20:48:30.215Z,7.26
2019-04-05T20:50:59.139Z,7.22
2019-04-05T20:53:28.170Z,7.25
2019-04-05T20:55:56.945Z,7.29
2019-04-05T20:58:25.639Z,7.25
2019-04-05T21:00:54.680Z,7.15
2019-04-05T21:03:23.374Z,7.04
2019-04-05T21:05:52.409Z,6.93
2019-04-05T21:08:21.275Z,6.94
2019-04-05T21:10:49.975Z,7.05
2019-04-05T21:13:19.545Z,7.23
2019-04-05T21:15:48.216Z,7.29
2019-04-05T21:18:17.162Z,7.22
2019-04-05T21:20:46.322Z,7.17
2019-04-05T21:23:15.273Z,6.98
2019-04-05T21:25:44.196Z,6.90
2019-04-05T21:28:13.152Z,6.90
2019-04-05T21:30:41.841Z,6.90
2019-04-05T21:33:10.809Z,6.95
2019-04-05T21:35:39.574Z,6.88
2019-04-05T21:38:08.324Z,6.96
2019-04-05T21:40:37.249Z,6.99
2019-04-05T21:43:06.079Z,6.88
2019-04-05T21:45:34.816Z,6.88
2019-04-05T21:48:03.514Z,6.95
2019-04-05T21:50:32.202Z,6.89
2019-04-05T21:53:00.948Z,6.88
2019-04-05T21:55:29.578Z,6.93
2019-04-05T21:57:58.338Z,6.92
2019-04-05T22:00:33.429Z,6.96
2019-04-05T22:03:02.404Z,7.11
2019-04-05T22:05:31.108Z,7.02
2019-04-05T22:08:00.155Z,7.14
2019-04-05T22:10:31.893Z,7.05
2019-04-05T22:13:00.952Z,7.07
2019-04-05T22:15:29.639Z,7.07
2019-04-05T22:17:58.683Z,7.14
2019-04-05T22:20:27.869Z,7.08
2019-04-05T22:22:56.584Z,7.03
2019-04-05T22:25:25.971Z,7.10
2019-04-05T22:27:54.958Z,7.06
2019-04-05T22:30:23.718Z,7.20
2019-04-05T22:32:52.431Z,7.34
2019-04-05T22:35:21.412Z,7.20
2019-04-05T22:37:50.097Z,7.15
2019-04-05T22:40:18.797Z,7.10
2019-04-05T22:42:47.484Z,7.07
2019-04-05T22:45:16.252Z,7.04
2019-04-05T22:47:44.930Z,7.01
2019-04-05T22:50:13.725Z,7.17
2019-04-05T22:52:43.280Z,7.25
2019-04-05T22:55:12.247Z,7.11
2019-04-05T22:57:41.201Z,7.08
2019-04-05T23:00:10.963Z,7.06
2019-04-05T23:02:42.054Z,7.14
2019-04-05T23:05:11.014Z,7.08
2019-04-05T23:07:40.269Z,7.10
2019-04-05T23:10:10.101Z,7.12
2019-04-05T23:12:39.234Z,7.18
2019-04-05T23:15:08.688Z,7.14
2019-04-05T23:17:37.779Z,7.18
2019-04-05T23:20:07.299Z,7.15
2019-04-05T23:22:36.393Z,7.14
2019-04-05T23:25:05.316Z,7.14
2019-04-05T23:27:34.309Z,7.12
2019-04-05T23:30:03.972Z,7.13
2019-04-05T23:32:33.235Z,7.14
2019-04-05T23:35:02.230Z,7.14
2019-04-05T23:37:30.796Z,7.15
2019-04-05T23:39:59.515Z,7.19
2019-04-05T23:42:28.528Z,7.16
2019-04-05T23:44:57.838Z,7.17
2019-04-05T23:47:26.533Z,7.15
2019-04-05T23:49:56.834Z,7.15
2019-04-05T23:52:25.830Z,7.14
2019-04-05T23:54:54.960Z,7.17
2019-04-05T23:57:23.648Z,7.23
2019-04-05T23:59:52.663Z,7.23
